Time;durP1;ratioP1;P1;durP2;ratioP2;P2;SDS_P1;SDS_P2;PMS_P1;PMS_P2;Temp;Humidity;BMP_temperature;BMP_pressure;BME280_temperature;BME280_humidity;BME280_pressure;Samples;Min_cycle;Max_cycle;Signal;HPM_P1;HPM_P2
2022/05/19 00:01:01;;;;;;;26.23;17.63;;;;;;;20.44;75.76;101557.34;5004443;28;20045;-79
2022/05/19 00:10:58;;;;;;;29.13;17.38;;;;;;;20.41;76.03;101546.88;4958934;28;20088;-80
2022/05/19 00:19:35;;;;;;;23.70;17.40;;;;;;;20.41;75.96;101531.25;5033215;28;20377;-79
2022/05/19 00:22:42;;;;;;;26.27;18.13;;;;;;;20.33;75.83;101521.59;5023876;28;20022;-79
2022/05/19 00:25:10;;;;;;;25.77;17.90;;;;;;;20.31;76.77;101523.81;5017494;28;20128;-78
2022/05/19 00:28:17;;;;;;;26.88;17.52;;;;;;;20.41;75.44;101528.50;5034007;28;20087;-78
2022/05/19 00:30:58;;;;;;;27.73;18.25;;;;;;;20.22;77.21;101521.88;5007706;28;20095;-78
2022/05/19 00:33:33;;;;;;;25.57;17.30;;;;;;;20.23;76.82;101516.13;5036219;28;20064;-78
2022/05/19 00:36:10;;;;;;;28.75;18.45;;;;;;;20.23;76.81;101513.38;5035082;28;20630;-78
2022/05/19 00:39:18;;;;;;;27.52;18.27;;;;;;;20.26;76.50;101511.97;5035678;28;20037;-79
2022/05/19 00:45:04;;;;;;;24.35;18.02;;;;;;;20.10;77.42;101502.91;5015146;28;20429;-79
2022/05/19 00:51:26;;;;;;;25.38;18.55;;;;;;;20.09;77.97;101509.50;5015221;28;20081;-79
2022/05/19 00:54:24;;;;;;;25.50;18.83;;;;;;;20.08;76.97;101497.69;4992042;28;20065;-79
2022/05/19 00:57:02;;;;;;;27.45;18.55;;;;;;;20.05;77.78;101491.91;4990247;28;20370;-78
2022/05/19 01:00:22;;;;;;;27.02;19.17;;;;;;;20.05;77.74;101497.38;4997632;28;20542;-78
2022/05/19 01:03:02;;;;;;;26.77;19.60;;;;;;;19.99;78.66;101485.59;4914393;29;20399;-79
2022/05/19 01:09:02;;;;;;;28.13;19.05;;;;;;;19.98;78.68;101478.44;4870584;29;20081;-78
2022/05/19 01:11:29;;;;;;;26.80;19.17;;;;;;;19.98;79.02;101479.25;4879464;29;20033;-78
2022/05/19 01:18:40;;;;;;;;;;;;;;;;;;;;;
2022/05/19 01:25:07;;;;;;;29.80;19.80;;;;;;;19.90;78.10;101468.81;4786739;29;20099;-78
2022/05/19 01:44:24;;;;;;;27.00;20.15;;;;;;;19.68;80.49;101435.25;4804349;29;20057;-78
2022/05/19 01:47:23;;;;;;;26.50;20.55;;;;;;;19.71;79.62;101440.19;4844076;29;20456;-78
2022/05/19 01:50:10;;;;;;;35.58;20.90;;;;;;;19.65;80.31;101437.44;4900501;29;20385;-78
2022/05/19 01:52:43;;;;;;;29.05;21.15;;;;;;;19.55;81.65;101437.44;5012568;28;20052;-78
2022/05/19 02:09:23;;;;;;;29.30;21.48;;;;;;;19.52;81.76;101415.19;4932091;29;20032;-78
2022/05/19 02:11:54;;;;;;;30.40;20.40;;;;;;;19.47;82.59;101411.34;4933560;29;20522;-78
2022/05/19 02:14:21;;;;;;;;;;;;;;;19.65;79.47;101420.97;4969230;28;20153;-78
2022/05/19 02:16:49;;;;;;;28.20;20.75;;;;;;;19.49;82.57;101416.56;4989299;28;20549;-78
2022/05/19 02:19:20;;;;;;;24.85;19.15;;;;;;;19.47;83.00;101421.47;5032764;28;20033;-78
2022/05/19 02:21:49;;;;;;;26.52;19.67;;;;;;;19.46;82.83;101422.56;5033214;28;20113;-77
2022/05/19 02:24:19;;;;;;;26.83;20.52;;;;;;;19.52;82.67;101420.66;5014858;28;20036;-73
2022/05/19 02:26:44;;;;;;;30.10;20.77;;;;;;;19.50;82.54;101420.13;5014486;28;20091;-78
2022/05/19 02:29:17;;;;;;;26.40;19.33;;;;;;;19.49;82.86;101427.53;5019002;28;20104;-77
2022/05/19 02:31:45;;;;;;;23.27;18.98;;;;;;;19.49;82.82;101422.06;5035826;28;20026;-79
2022/05/19 02:34:10;;;;;;;26.33;19.38;;;;;;;19.51;82.79;101425.34;5035431;28;20040;-79
2022/05/19 02:36:40;;;;;;;25.25;18.85;;;;;;;19.56;82.61;101433.56;5017804;28;20025;-81
2022/05/19 02:39:05;;;;;;;22.77;17.77;;;;;;;19.55;82.63;101428.34;5037840;28;21218;-79
2022/05/19 02:41:31;;;;;;;22.17;17.30;;;;;;;19.56;82.40;101433.56;5018898;28;20465;-79
2022/05/19 02:43:56;;;;;;;25.48;18.05;;;;;;;19.56;82.71;101433.56;5015848;28;20033;-79
2022/05/19 02:46:22;;;;;;;23.02;17.00;;;;;;;19.59;82.60;101433.03;5032432;28;20024;-79
2022/05/19 02:48:47;;;;;;;23.08;17.77;;;;;;;19.61;82.18;101430.00;5014434;28;20037;-79
2022/05/19 02:51:13;;;;;;;23.63;16.92;;;;;;;19.64;82.07;101441.28;5032601;28;20061;-80
2022/05/19 02:53:39;;;;;;;24.67;16.42;;;;;;;19.68;81.69;101440.75;5033962;28;20037;-79
2022/05/19 02:56:05;;;;;;;24.65;16.00;;;;;;;19.70;81.79;101444.03;5033475;28;20116;-80
2022/05/19 02:58:30;;;;;;;22.10;16.60;;;;;;;19.73;82.09;101446.25;5015450;28;20028;-79
2022/05/19 03:00:55;;;;;;;20.42;16.13;;;;;;;19.71;81.58;101460.25;5013223;28;20033;-79
2022/05/19 03:03:21;;;;;;;23.08;16.85;;;;;;;19.68;81.37;101518.44;5015485;28;20508;-79
2022/05/19 03:05:46;;;;;;;25.10;17.42;;;;;;;19.63;81.64;101565.94;5025607;28;20022;-79
2022/05/19 03:08:12;;;;;;;32.53;20.80;;;;;;;19.55;82.50;101566.47;4995807;28;20084;-79
2022/05/19 03:10:39;;;;;;;121.78;22.63;;;;;;;19.59;80.34;101553.81;4995737;28;20469;-79
2022/05/19 03:13:05;;;;;;;52.80;19.00;;;;;;;19.65;80.38;101580.19;5013259;28;20038;-79
2022/05/19 03:15:35;;;;;;;23.45;17.60;;;;;;;19.64;80.18;101600.53;4995015;28;20045;-78
2022/05/19 03:18:01;;;;;;;23.40;17.20;;;;;;;19.69;80.08;101591.50;5012816;28;20412;-79
2022/05/19 03:20:26;;;;;;;20.25;16.13;;;;;;;19.72;79.55;101574.47;5013527;28;20037;-79
2022/05/19 03:22:52;;;;;;;20.48;16.33;;;;;;;19.76;78.77;101588.47;5016996;28;20502;-79
2022/05/19 03:25:17;;;;;;;25.08;15.63;;;;;;;19.83;78.46;101605.56;5016379;28;20045;-78
2022/05/19 03:27:43;;;;;;;21.10;15.00;;;;;;;19.86;78.38;101596.78;5015473;28;20121;-79
2022/05/19 03:30:12;;;;;;;20.80;15.43;;;;;;;19.93;77.91;101597.38;4998527;28;20040;-79
2022/05/19 03:32:38;;;;;;;23.80;14.77;;;;;;;19.89;78.01;101593.50;4998949;28;20033;-78
2022/05/19 03:35:04;;;;;;;21.92;15.27;;;;;;;19.95;78.13;101594.34;5003968;28;20044;-79
2022/05/19 03:37:29;;;;;;;19.42;14.40;;;;;;;19.92;79.38;101590.22;5018221;28;20075;-79
2022/05/19 03:39:54;;;;;;;20.83;14.80;;;;;;;19.92;78.84;101606.69;5018521;28;20478;-79
2022/05/19 03:42:20;;;;;;;23.33;15.52;;;;;;;19.92;80.14;101595.72;5035753;28;20037;-79
2022/05/19 03:44:45;;;;;;;23.50;15.38;;;;;;;19.91;80.19;101605.03;5036456;28;20392;-78
2022/05/19 03:47:10;;;;;;;23.10;15.70;;;;;;;19.88;80.00;101594.59;5035617;28;20056;-79
2022/05/19 03:49:36;;;;;;;22.80;14.85;;;;;;;19.87;81.19;101570.16;5014546;28;20045;-79
2022/05/19 03:52:01;;;;;;;25.67;16.48;;;;;;;19.93;80.34;101591.03;4998272;28;20053;-76
2022/05/19 03:54:27;;;;;;;24.00;15.63;;;;;;;19.89;80.81;101585.28;5016440;28;20113;-79
2022/05/19 03:56:52;;;;;;;25.58;15.65;;;;;;;19.90;80.23;101581.44;4998892;28;20041;-77
2022/05/19 03:59:17;;;;;;;22.63;15.35;;;;;;;19.89;81.05;101604.50;5016414;28;20496;-77
2022/05/19 04:01:43;;;;;;;24.83;15.77;;;;;;;19.84;80.72;101604.50;4997198;28;20029;-77
2022/05/19 04:04:08;;;;;;;22.33;15.43;;;;;;;19.90;80.82;101619.03;4998741;28;20097;-77
2022/05/19 04:06:34;;;;;;;18.45;14.93;;;;;;;19.90;81.83;101617.16;5011863;28;20073;-77
2022/05/19 04:09:00;;;;;;;21.23;15.02;;;;;;;19.86;82.80;101612.47;5039984;28;20045;-77
2022/05/19 04:11:26;;;;;;;25.40;15.45;;;;;;;19.88;81.29;101616.56;5033876;28;20476;-78
2022/05/19 04:13:52;;;;;;;19.75;15.20;;;;;;;19.86;82.39;101595.97;5017268;28;20029;-78
2022/05/19 04:16:17;;;;;;;22.13;15.68;;;;;;;19.84;81.77;101607.25;5015966;28;20037;-78
2022/05/19 04:18:42;;;;;;;25.58;15.88;;;;;;;19.88;81.85;101604.75;5005998;28;20032;-79
2022/05/19 04:21:11;;;;;;;24.15;15.80;;;;;;;19.83;82.04;101613.81;5016061;28;20041;-78
2022/05/19 04:23:37;;;;;;;25.60;15.82;;;;;;;19.83;82.26;101622.88;4998628;28;20061;-78
2022/05/19 04:26:06;;;;;;;24.88;15.90;;;;;;;19.76;82.74;101624.19;4998968;28;20060;-78
2022/05/19 04:28:32;;;;;;;21.30;15.88;;;;;;;19.71;83.93;101615.94;4997901;28;20026;-78
2022/05/19 04:30:57;;;;;;;22.73;15.20;;;;;;;19.75;83.34;101603.31;4997869;28;20125;-78
2022/05/19 04:33:23;;;;;;;22.33;16.33;;;;;;;19.81;81.38;101599.53;5015912;28;20034;-78
2022/05/19 04:35:48;;;;;;;24.98;16.67;;;;;;;19.76;81.74;101611.31;5016410;28;20029;-79
2022/05/19 04:38:16;;;;;;;24.17;15.90;;;;;;;19.75;82.21;101595.09;5015971;28;20036;-78
2022/05/19 04:40:49;;;;;;;25.35;16.50;;;;;;;19.74;82.22;101593.44;4997842;28;20117;-78
2022/05/19 04:43:22;;;;;;;24.88;16.05;;;;;;;19.72;82.24;101596.44;4997745;28;20042;-78
2022/05/19 04:45:52;;;;;;;24.58;16.30;;;;;;;19.72;82.22;101607.44;5013960;28;20030;-78
2022/05/19 04:48:19;;;;;;;20.58;14.95;;;;;;;19.72;82.26;101595.63;4997635;28;20053;-79
2022/05/19 04:50:44;;;;;;;21.50;14.20;;;;;;;19.76;81.99;101599.47;4997391;28;20491;-79
2022/05/19 04:53:11;;;;;;;19.17;14.18;;;;;;;19.77;82.20;101590.16;5016150;28;20132;-78
2022/05/19 04:55:38;;;;;;;22.17;14.50;;;;;;;19.73;83.01;101586.28;5009147;28;20018;-78
2022/05/19 04:58:05;;;;;;;23.88;13.20;;;;;;;19.76;82.50;101588.47;5036372;28;20038;-78
2022/05/19 05:00:31;;;;;;;17.75;13.63;;;;;;;19.74;82.35;101596.19;5016052;28;20424;-77
2022/05/19 05:02:56;;;;;;;22.13;13.30;;;;;;;19.73;82.61;101605.50;4998418;28;20148;-79
2022/05/19 05:05:23;;;;;;;24.52;12.73;;;;;;;19.74;81.90;101590.69;5014933;28;20061;-78
2022/05/19 05:07:48;;;;;;;16.67;11.10;;;;;;;19.66;82.55;101597.53;4997258;28;20036;-78
2022/05/19 05:10:13;;;;;;;17.30;11.20;;;;;;;19.60;82.59;101599.41;4997174;28;20029;-78
2022/05/19 05:12:39;;;;;;;18.15;11.25;;;;;;;19.57;83.09;101583.47;5004580;28;20473;-78
2022/05/19 05:15:05;;;;;;;18.75;12.18;;;;;;;19.55;83.37;101584.81;5033320;28;20069;-79
2022/05/19 05:17:31;;;;;;;20.02;11.52;;;;;;;19.52;84.35;101586.22;5016444;28;20029;-78
2022/05/19 05:19:56;;;;;;;26.40;12.88;;;;;;;19.47;86.16;101572.44;5034607;28;20052;-79
2022/05/19 05:22:21;;;;;;;30.13;13.70;;;;;;;19.40;87.26;101560.88;5016492;28;20038;-78
2022/05/19 05:24:46;;;;;;;26.77;13.32;;;;;;;19.42;89.78;101554.03;5034474;28;20065;-79
2022/05/19 05:27:12;;;;;;;25.60;11.80;;;;;;;19.40;89.47;101527.94;5028089;28;20038;-79
2022/05/19 05:29:38;;;;;;;17.08;10.18;;;;;;;19.43;89.73;101528.25;4996723;28;20038;-78
2022/05/19 05:32:03;;;;;;;19.45;11.38;;;;;;;19.43;92.11;101531.00;4997591;28;20026;-78
2022/05/19 05:34:28;;;;;;;14.88;11.20;;;;;;;19.43;93.33;101532.88;5014136;28;20034;-78
2022/05/19 05:36:54;;;;;;;15.02;10.07;;;;;;;19.43;93.13;101521.91;4997145;28;20026;-78
2022/05/19 05:39:19;;;;;;;16.58;10.23;;;;;;;19.39;92.88;101498.88;4996823;28;20030;-78
2022/05/19 05:41:45;;;;;;;19.05;9.57;;;;;;;19.41;91.47;101482.94;4997537;28;20030;-79
2022/05/19 05:44:10;;;;;;;19.35;10.60;;;;;;;19.32;93.03;101488.13;5011966;28;20080;-78
2022/05/19 05:46:36;;;;;;;14.73;10.65;;;;;;;19.25;94.01;101468.34;5014688;28;20052;-78
2022/05/19 05:49:02;;;;;;;15.00;11.43;;;;;;;19.26;92.92;101473.56;5013512;28;20033;-78
2022/05/19 05:51:27;;;;;;;15.85;10.70;;;;;;;19.33;92.41;101488.97;5013962;28;20558;-79
2022/05/19 05:53:53;;;;;;;17.17;11.45;;;;;;;19.28;93.85;101498.81;5014673;28;20042;-78
2022/05/19 05:56:20;;;;;;;18.38;11.13;;;;;;;19.32;93.25;101490.06;5014429;28;20069;-78
2022/05/19 05:58:45;;;;;;;17.33;10.15;;;;;;;19.32;92.48;101485.38;4996687;28;20026;-79
2022/05/19 06:01:13;;;;;;;11.73;9.75;;;;;;;19.28;92.95;101478.78;4994691;28;20037;-79
2022/05/19 06:03:39;;;;;;;12.85;10.32;;;;;;;19.29;92.46;101467.56;4995167;28;20454;-79
2022/05/19 06:06:05;;;;;;;15.05;9.88;;;;;;;19.24;92.69;101470.25;5014872;28;20040;-78
2022/05/19 06:08:32;;;;;;;18.70;10.98;;;;;;;19.21;93.45;101487.25;4980551;28;20054;-79
2022/05/19 06:10:59;;;;;;;22.75;11.75;;;;;;;19.21;93.70;101497.41;5014336;28;20044;-79
2022/05/19 06:13:24;;;;;;;18.30;11.80;;;;;;;19.24;94.07;101497.69;4996447;28;20040;-79
2022/05/19 06:15:50;;;;;;;17.77;13.00;;;;;;;19.23;95.05;101504.28;5013684;28;20105;-79
2022/05/19 06:18:15;;;;;;;20.58;13.50;;;;;;;19.28;94.67;101504.31;5014113;28;20034;-79
2022/05/19 06:20:41;;;;;;;16.80;13.13;;;;;;;19.28;94.00;101500.75;5033055;28;20388;-78
2022/05/19 06:23:07;;;;;;;26.02;13.57;;;;;;;19.25;94.14;101493.88;5032021;28;20065;-79
2022/05/19 06:25:33;;;;;;;21.38;14.18;;;;;;;19.29;94.72;101485.91;5015384;28;20084;-78
2022/05/19 06:28:00;;;;;;;21.38;13.88;;;;;;;19.32;94.18;101488.13;5015435;28;20033;-79
2022/05/19 06:30:27;;;;;;;20.23;14.23;;;;;;;19.26;95.03;101484.56;4999139;28;20130;-78
2022/05/19 06:32:55;;;;;;;17.88;13.88;;;;;;;19.33;93.91;101491.72;5032815;28;20460;-79
2022/05/19 06:35:25;;;;;;;18.65;13.40;;;;;;;19.36;93.99;101480.19;5032757;28;20030;-79
2022/05/19 06:37:51;;;;;;;19.27;14.10;;;;;;;19.40;92.94;101489.53;5015471;28;20036;-78
2022/05/19 06:40:17;;;;;;;17.08;14.18;;;;;;;19.42;94.62;101492.84;5033161;28;20104;-78
2022/05/19 06:42:44;;;;;;;19.42;15.27;;;;;;;19.39;95.73;101487.88;5032891;28;20037;-79
2022/05/19 06:45:12;;;;;;;18.60;14.48;;;;;;;19.51;95.73;101484.91;5033162;28;20037;-79
2022/05/19 06:47:38;;;;;;;19.85;14.18;;;;;;;19.52;93.39;101467.34;5032144;28;20507;-78
2022/05/19 06:50:04;;;;;;;19.67;14.18;;;;;;;19.57;93.64;101464.63;5015761;28;20033;-78
2022/05/19 06:52:32;;;;;;;19.90;13.65;;;;;;;19.59;93.75;101474.22;5004386;28;20058;-78
2022/05/19 06:55:00;;;;;;;20.38;13.75;;;;;;;19.62;93.97;101487.41;5013695;28;20042;-78
2022/05/19 06:57:26;;;;;;;19.33;14.35;;;;;;;19.61;93.80;101479.44;5013979;28;20056;-78
2022/05/19 06:59:52;;;;;;;20.65;14.18;;;;;;;19.68;94.53;101469.03;4996462;28;20429;-77
2022/05/19 07:02:20;;;;;;;18.52;14.43;;;;;;;19.71;93.91;101484.13;5026710;28;20054;-77
2022/05/19 07:04:46;;;;;;;17.92;14.25;;;;;;;19.70;93.15;101468.75;5034008;28;20026;-77
2022/05/19 07:07:12;;;;;;;19.13;14.07;;;;;;;19.74;93.62;101467.94;5013269;28;20513;-77
2022/05/19 07:09:38;;;;;;;19.33;14.90;;;;;;;19.75;94.11;101464.09;5013508;28;20076;-77
2022/05/19 07:12:04;;;;;;;18.98;13.88;;;;;;;19.78;93.47;101460.84;4995795;28;20378;-78
2022/05/19 07:14:31;;;;;;;19.88;13.30;;;;;;;19.78;93.97;101458.09;4996685;28;20048;-77
2022/05/19 07:16:56;;;;;;;20.15;13.63;;;;;;;19.86;92.36;101462.22;5020478;28;20433;-77
2022/05/19 07:22:08;;;;;;;21.48;14.20;;;;;;;19.92;92.88;101465.81;5013553;28;20057;-77
2022/05/19 07:24:34;;;;;;;23.17;14.68;;;;;;;19.94;93.31;101453.44;4979119;28;20072;-77
2022/05/19 07:27:00;;;;;;;24.52;14.68;;;;;;;19.96;94.30;101456.75;5013118;28;20413;-77
2022/05/19 07:29:27;;;;;;;20.15;14.35;;;;;;;20.07;93.09;101463.06;5022212;28;20029;-77
2022/05/19 07:31:55;;;;;;;18.65;13.43;;;;;;;20.07;92.71;101445.75;5015701;28;20115;-77
2022/05/19 07:34:22;;;;;;;18.25;13.45;;;;;;;20.14;92.16;101449.88;4995502;28;20058;-77
2022/05/19 07:36:48;;;;;;;18.38;12.95;;;;;;;20.18;92.13;101461.97;5013152;28;20065;-77
2022/05/19 07:39:15;;;;;;;19.85;14.18;;;;;;;20.21;91.74;101474.31;5012618;28;20456;-77
2022/05/19 07:41:40;;;;;;;19.23;13.40;;;;;;;20.30;91.35;101474.59;5012022;28;20037;-77
2022/05/19 07:44:07;;;;;;;16.63;13.88;;;;;;;20.38;92.01;101475.97;5012500;28;20038;-78
2022/05/19 07:46:33;;;;;;;17.35;12.50;;;;;;;20.40;89.95;101487.53;4994531;28;20022;-78
2022/05/19 07:48:58;;;;;;;16.92;12.63;;;;;;;20.45;89.78;101482.03;4994854;28;20036;-78
2022/05/19 07:51:26;;;;;;;15.52;13.18;;;;;;;20.51;90.18;101478.16;4995589;28;20034;-78
2022/05/19 07:53:52;;;;;;;16.23;12.55;;;;;;;20.60;88.24;101490.25;5032016;28;20095;-77
2022/05/19 07:56:18;;;;;;;17.42;12.85;;;;;;;20.67;87.62;101474.31;5032337;28;20045;-76
2022/05/19 07:58:44;;;;;;;17.52;12.85;;;;;;;20.78;87.01;101477.06;5014101;28;20293;-76
2022/05/19 08:01:09;;;;;;;23.27;13.45;;;;;;;20.85;87.30;101472.91;5029712;28;20034;-74
2022/05/19 08:03:35;;;;;;;17.70;12.45;;;;;;;20.92;87.47;101464.34;5031699;28;20036;-74
2022/05/19 08:06:01;;;;;;;16.05;12.10;;;;;;;21.01;85.40;101457.16;5014249;28;20051;-74
2022/05/19 08:08:26;;;;;;;18.58;12.07;;;;;;;21.16;85.41;101463.72;5034987;28;20035;-74
2022/05/19 08:10:53;;;;;;;17.67;11.65;;;;;;;21.23;84.39;101456.00;5035322;28;20033;-74
2022/05/19 08:16:03;;;;;;;16.10;10.85;;;;;;;21.48;82.47;101476.22;5035708;28;20104;-74
2022/05/19 08:18:28;;;;;;;18.70;11.20;;;;;;;21.51;82.67;101476.50;5035456;28;20065;-74
2022/05/19 08:20:59;;;;;;;16.35;10.70;;;;;;;21.58;81.62;101473.44;5035204;28;20048;-74
2022/05/19 08:23:26;;;;;;;14.25;10.02;;;;;;;21.64;80.96;101474.25;5034821;28;20033;-74
2022/05/19 08:25:52;;;;;;;12.52;9.30;;;;;;;21.72;81.16;101465.38;5034762;28;20113;-72
2022/05/19 08:28:18;;;;;;;14.02;9.75;;;;;;;21.79;78.63;101459.56;5034987;28;20049;-74
2022/05/19 08:30:47;;;;;;;11.77;8.90;;;;;;;21.87;77.09;101475.47;5017100;28;20025;-75
2022/05/19 08:33:13;;;;;;;13.63;8.82;;;;;;;21.98;77.72;101463.25;5034289;28;20037;-75
2022/05/19 08:35:38;;;;;;;11.95;8.20;;;;;;;22.04;76.71;101453.88;5034937;28;20465;-75
2022/05/19 08:38:04;;;;;;;15.23;8.20;;;;;;;22.12;74.73;101458.75;5033886;28;20033;-75
2022/05/19 08:40:41;;;;;;;15.00;8.98;;;;;;;22.22;73.39;101468.03;5035057;28;20032;-75
2022/05/19 08:43:10;;;;;;;11.95;8.15;;;;;;;22.27;73.76;101455.03;5035210;28;20029;-75
2022/05/19 08:45:40;;;;;;;13.25;8.60;;;;;;;22.35;74.14;101450.03;5014557;28;20084;-75
2022/05/19 08:48:19;;;;;;;13.48;7.47;;;;;;;22.46;73.01;101446.06;5032028;28;20475;-75
2022/05/19 08:50:57;;;;;;;13.65;7.22;;;;;;;22.53;72.36;101448.50;5016972;28;20025;-75
2022/05/19 08:53:36;;;;;;;11.88;7.55;;;;;;;22.54;70.75;101439.94;5034480;28;20563;-74
2022/05/19 08:56:11;;;;;;;12.25;7.53;;;;;;;22.67;70.40;101435.63;5034711;28;20080;-75
2022/05/19 08:58:42;;;;;;;10.27;7.38;;;;;;;22.78;69.92;101439.94;5034177;28;20459;-74
2022/05/19 09:01:34;;;;;;;9.73;6.68;;;;;;;22.83;72.15;101439.88;5014480;28;20465;-74
2022/05/19 09:04:38;;;;;;;12.80;6.57;;;;;;;22.88;70.28;101441.75;5025625;28;20029;-75
2022/05/19 09:09:57;;;;;;;9.90;6.10;;;;;;;23.01;69.91;101434.72;5034546;28;20043;-76
2022/05/19 09:12:27;;;;;;;10.73;6.40;;;;;;;23.05;68.01;101434.94;5034099;28;20421;-74
2022/05/19 09:14:52;;;;;;;8.52;5.70;;;;;;;23.20;67.30;101425.66;5034271;28;20026;-75
2022/05/19 09:17:25;;;;;;;9.95;5.93;;;;;;;23.35;68.18;101428.22;5034303;28;20083;-74
2022/05/19 09:19:58;;;;;;;9.85;6.68;;;;;;;23.50;66.90;101427.97;5027180;28;20116;-75
2022/05/19 09:22:26;;;;;;;13.32;6.22;;;;;;;23.62;68.20;101421.19;5008936;28;20119;-74
2022/05/19 09:24:52;;;;;;;14.52;6.53;;;;;;;23.67;67.20;101419.19;5016005;28;20029;-76
2022/05/19 09:27:19;;;;;;;11.05;6.90;;;;;;;23.68;67.55;101415.28;5033969;28;20033;-73
2022/05/19 09:29:52;;;;;;;14.13;6.57;;;;;;;23.76;67.92;101421.25;5034056;28;20022;-75
2022/05/19 09:32:34;;;;;;;12.20;6.40;;;;;;;23.76;67.52;101424.81;5034534;28;20055;-75
2022/05/19 09:35:09;;;;;;;13.85;6.25;;;;;;;23.78;67.78;101430.91;5053653;28;20105;-73
2022/05/19 09:37:44;;;;;;;10.35;5.93;;;;;;;23.77;67.97;101429.25;5025112;28;20484;-73
2022/05/19 09:40:12;;;;;;;16.45;6.40;;;;;;;23.79;65.41;101432.50;5034722;28;20061;-74
2022/05/19 09:43:08;;;;;;;14.13;5.75;;;;;;;23.81;67.13;101423.94;5034081;28;20033;-76
2022/05/19 09:45:42;;;;;;;15.13;5.85;;;;;;;23.79;65.80;101426.19;5025620;28;20033;-73
2022/05/19 09:48:08;;;;;;;13.68;5.68;;;;;;;23.83;65.44;101428.03;5033955;28;20029;-74
2022/05/19 09:50:46;;;;;;;23.90;6.50;;;;;;;23.80;67.65;101423.13;5016061;28;20092;-73
2022/05/19 09:53:42;;;;;;;13.48;6.60;;;;;;;23.81;67.25;101422.00;5034097;28;20046;-73
2022/05/19 09:56:14;;;;;;;15.77;5.63;;;;;;;23.82;65.93;101420.84;5016338;28;20423;-74
2022/05/19 09:58:44;;;;;;;8.63;5.32;;;;;;;23.86;66.76;101407.31;5048961;28;20033;-74
2022/05/19 10:01:19;;;;;;;16.20;5.65;;;;;;;23.91;66.77;101403.63;5038256;28;20033;-75
2022/05/19 10:03:58;;;;;;;12.45;5.20;;;;;;;23.96;66.25;101400.78;5032694;28;20511;-75
2022/05/19 10:06:33;;;;;;;14.82;5.00;;;;;;;24.02;66.48;101396.78;5033919;28;20092;-75
2022/05/19 10:09:05;;;;;;;9.80;4.40;;;;;;;24.12;62.71;101387.53;5033392;28;20485;-75
2022/05/19 10:11:30;;;;;;;12.07;4.40;;;;;;;24.22;64.03;101387.34;5033879;28;20072;-75
2022/05/19 10:14:04;;;;;;;11.25;4.28;;;;;;;24.35;61.81;101371.88;5033290;28;20112;-77
2022/05/19 10:17:01;;;;;;;9.38;3.63;;;;;;;24.45;62.66;101360.63;5033104;28;20029;-77
2022/05/19 10:19:40;;;;;;;12.23;4.22;;;;;;;24.63;59.50;101352.56;5033698;28;20033;-79
2022/05/19 10:22:24;;;;;;;7.70;3.78;;;;;;;24.76;60.13;101360.84;5022658;28;20037;-75
2022/05/19 10:25:08;;;;;;;9.90;4.00;;;;;;;24.85;56.86;101358.19;5033360;28;20029;-77
2022/05/19 10:33:38;;;;;;;9.18;3.97;;;;;;;25.05;57.97;101343.06;5032832;28;20129;-77
2022/05/19 10:36:09;;;;;;;7.63;3.50;;;;;;;25.12;56.07;101350.94;5032984;28;20104;-74
2022/05/19 10:39:16;;;;;;;6.65;3.67;;;;;;;25.26;56.74;101351.72;5032627;28;20112;-75
2022/05/19 10:41:57;;;;;;;8.88;3.55;;;;;;;25.35;58.27;101360.13;4971527;28;20031;-74
2022/05/19 10:45:00;;;;;;;10.70;3.70;;;;;;;25.43;55.92;101367.69;5025423;28;20050;-75
2022/05/19 10:47:25;;;;;;;6.07;3.55;;;;;;;25.42;54.34;101365.25;5014158;28;20033;-75
2022/05/19 10:50:05;;;;;;;9.07;3.20;;;;;;;25.42;57.40;101356.94;5032288;28;20041;-77
2022/05/19 10:53:00;;;;;;;7.68;3.80;;;;;;;25.45;55.66;101364.59;5032532;28;20385;-77
2022/05/19 10:55:51;;;;;;;11.48;3.50;;;;;;;25.48;53.51;101352.91;5030224;28;20095;-75
2022/05/19 10:58:39;;;;;;;8.38;3.58;;;;;;;25.52;55.83;101365.00;5032769;28;20499;-74
2022/05/19 11:01:22;;;;;;;7.28;3.50;;;;;;;25.57;54.18;101350.19;5021117;28;20030;-78
2022/05/19 11:04:06;;;;;;;7.63;3.40;;;;;;;25.56;53.81;101348.56;5024267;28;20048;-72
2022/05/19 11:06:55;;;;;;;9.23;3.45;;;;;;;25.54;54.96;101356.38;5024909;28;20029;-76
2022/05/19 11:09:57;;;;;;;14.73;3.65;;;;;;;25.40;55.33;101348.94;5032097;28;20044;-74
2022/05/19 11:12:41;;;;;;;8.27;3.40;;;;;;;25.29;52.35;101355.81;5032219;28;20026;-74
2022/05/19 11:15:24;;;;;;;9.68;3.70;;;;;;;25.18;54.97;101344.13;5032345;28;20465;-73
2022/05/19 11:17:59;;;;;;;8.45;3.60;;;;;;;25.02;54.42;101342.88;5031205;28;20366;-74
2022/05/19 11:20:29;;;;;;;8.30;3.25;;;;;;;24.97;52.81;101345.75;5032373;28;20025;-72
2022/05/19 11:23:03;;;;;;;4.93;3.35;;;;;;;24.85;56.36;101355.41;5032055;28;20048;-75
2022/05/19 11:28:32;;;;;;;16.80;3.85;;;;;;;24.74;53.94;101373.34;5032194;28;20091;-72
2022/05/19 11:31:04;;;;;;;12.18;3.60;;;;;;;24.73;53.21;101391.06;5031240;28;20030;-73
2022/05/19 11:33:36;;;;;;;7.93;3.20;;;;;;;24.69;54.08;101396.41;5032373;28;20037;-73
2022/05/19 11:36:11;;;;;;;10.52;3.53;;;;;;;24.66;53.83;101408.09;5032250;28;20026;-74
2022/05/19 11:39:01;;;;;;;15.05;3.67;;;;;;;24.62;55.02;101429.19;5032106;28;20080;-74
2022/05/19 11:41:33;;;;;;;19.77;4.30;;;;;;;24.75;54.54;101538.28;5033182;28;20080;-74
2022/05/19 11:44:13;;;;;;;139.20;9.15;;;;;;;23.54;65.61;101690.66;5036528;28;20032;-74
2022/05/19 11:47:06;;;;;;;29.10;5.07;;;;;;;21.11;81.95;101694.91;5030037;28;20059;-75
2022/05/19 11:55:45;;;;;;;7.50;2.30;;;;;;;17.98;92.71;101620.53;5036420;28;20137;-73
2022/05/19 11:58:29;;;;;;;4.05;1.40;;;;;;;17.70;93.51;101644.28;5036061;28;20037;-73
2022/05/19 12:01:09;;;;;;;5.60;1.55;;;;;;;17.53;92.44;101620.50;5033473;28;20045;-75
2022/05/19 12:03:56;;;;;;;9.18;1.80;;;;;;;17.16;97.72;101621.06;5017407;28;20095;-72
2022/05/19 12:06:49;;;;;;;7.82;1.63;;;;;;;17.34;93.45;101606.28;5035886;28;20143;-75
2022/05/19 12:09:32;;;;;;;4.13;1.40;;;;;;;17.09;97.67;101614.97;5020510;28;20072;-75
2022/05/19 12:12:03;;;;;;;4.60;1.83;;;;;;;17.08;98.07;101624.25;5035422;28;20063;-73
2022/05/19 12:14:40;;;;;;;3.60;1.70;;;;;;;17.15;100.00;101627.63;5029496;28;20037;-73
2022/05/19 12:17:28;;;;;;;3.58;2.17;;;;;;;17.19;98.84;101608.81;5035784;28;20034;-73
2022/05/19 12:19:56;;;;;;;4.68;2.55;;;;;;;17.21;100.00;101592.16;5035416;28;20030;-73
2022/05/19 12:22:35;;;;;;;8.90;3.33;;;;;;;17.25;100.00;101587.84;5034493;28;20095;-75
2022/05/19 12:25:00;;;;;;;6.28;3.13;;;;;;;17.38;100.00;101565.59;5034943;28;20037;-75
2022/05/19 12:27:53;;;;;;;6.73;3.70;;;;;;;17.43;99.88;101565.66;5035720;28;20106;-73
2022/05/19 12:33:16;;;;;;;6.38;4.18;;;;;;;17.47;100.00;101607.03;5035953;28;20040;-79
2022/05/19 12:35:47;;;;;;;6.95;4.68;;;;;;;17.52;100.00;101615.31;5017629;28;20037;-78
2022/05/19 12:38:30;;;;;;;8.90;5.03;;;;;;;17.53;100.00;101631.47;5017875;28;20056;-75
2022/05/19 12:40:57;;;;;;;11.85;5.13;;;;;;;17.54;100.00;101613.97;5016078;28;20094;-73
2022/05/19 12:43:24;;;;;;;8.77;5.68;;;;;;;17.61;100.00;101600.09;5036443;28;20080;-75
2022/05/19 12:45:56;;;;;;;10.90;5.60;;;;;;;17.61;100.00;101593.81;5050663;28;20045;-76
2022/05/19 12:48:42;;;;;;;10.55;5.18;;;;;;;17.63;100.00;101586.16;5054136;28;20152;-74
2022/05/19 12:51:08;;;;;;;7.43;4.93;;;;;;;17.71;100.00;101550.97;5006856;28;20480;-74
2022/05/19 12:53:48;;;;;;;9.60;5.72;;;;;;;17.81;100.00;101569.41;5035465;28;20507;-77
2022/05/19 12:56:52;;;;;;;10.95;5.93;;;;;;;17.85;100.00;101588.91;5035424;28;20029;-79
2022/05/19 12:59:43;;;;;;;11.15;6.10;;;;;;;17.93;100.00;101629.53;5033968;28;20045;-77
2022/05/19 13:02:18;;;;;;;10.77;6.88;;;;;;;18.07;100.00;101627.22;5033417;28;20030;-77
2022/05/19 13:04:48;;;;;;;11.60;7.28;;;;;;;18.25;100.00;101609.59;5040496;28;20037;-75